Rudyard, MI (49780)

1:19 AM EST on March 06, 2015 (GMT -0500)
Chippewa County International | Change Station
CLOSE
Current Station
Airport
Location: Chippewa,
Elevation: 801 ft
Nearby Weather Stations

Elev 801 ft 46.25 °N, 84.48 °W | Updated 4 minutes ago

Partly Cloudy
Partly Cloudy
1 °F
Feels Like -8 °F
N
5
Wind Variable Wind from SSW

Today
High -- | Low -- °F
--% Chance of Precip.
Yesterday
High -- | Low -- °F
Precip. -- in
7:08 AM 6:30 PM
Full, 100% visible
Pressure 30.30 in
Visibility 10.0 miles
Clouds Clear
Windchill -8 °F
Dew Point 0 °F
Humidity 92%
Rainfall 0.00 in
Snow Depth Not available.
UV 0 out of 12
Pollen .40 out of 12
Air Quality Not available.
Flu Activity Not available.
METAR KCIU 060615Z AUTO 20004KT 10SM CLR M17/M18 A3030 RMK AO1

More Conditions Fewer Conditions

Pressure 30.30 in
Visibility 10.0 miles
Clouds Clear
Windchill -8 °F
Dew Point 0 °F
Humidity 92%
Rainfall 0.00 in
Snow Depth Not available.
UV 0 out of 12
Pollen .40 out of 12
Air Quality Not available.
Flu Activity Not available.
METAR KCIU 060615Z AUTO 20004KT 10SM CLR M17/M18 A3030 RMK AO1

More Conditions Fewer Conditions

Nowcast | as of 1:00 am EST on March 6, 2015

At 2 am...mostly clear. Chance of snow showers. Temperature 7 below. South winds 5 mph. At 4 am...partly cloudy. Chance of snow showers. Temperature 4 below. South winds 5 mph. At 6 am...mostly clear. Chance of snow showers. Temperature 1 below. South winds 6 mph. At 8 am...mostly clear. Slight chance of snow showers. Temperature 4 above. South winds 8 mph.

×

10-Day Weather Forecast

Almanac

Astronomy

Mar. 06, 2015 Rise Set
Actual Time
Civil Twilight
Nautical Twilight
Astronomical Twilight
Moon
Length of Visible Light
Length of Day
Tomorrow will be .
, % of the Moon is Illuminated

Today's Extremes

State Highs State Lows

Community

WunderPhotos

Upload Photos

1,803,194 photos uploaded!

WunderBlogs® & News

Nearby

Air Quality

  Air Quality AQ Index Pollutant
Not available.

Snow Depth

Station Depth Elevation

Earthquake Activity

City Distance Mag. Time & Date
Minimum magnitude displayed is 2.5.

Coastal Water Temperatures

Place Temperature

Nearby Weather Stations